sensor_id;sensor_type;location;lat;lon;timestamp;P1;durP1;ratioP1;P2;durP2;ratioP2
25073;SDS011;13066;52.042;5.648;2022-11-20T00:00:54;15.88;;;8.80;;
25073;SDS011;13066;52.042;5.648;2022-11-20T00:03:22;17.13;;;9.13;;
25073;SDS011;13066;52.042;5.648;2022-11-20T00:05:50;22.08;;;9.05;;
25073;SDS011;13066;52.042;5.648;2022-11-20T00:08:20;19.08;;;9.38;;
25073;SDS011;13066;52.042;5.648;2022-11-20T00:10:48;22.95;;;9.10;;
25073;SDS011;13066;52.042;5.648;2022-11-20T00:13:16;19.00;;;9.60;;
25073;SDS011;13066;52.042;5.648;2022-11-20T00:15:44;19.08;;;10.75;;
25073;SDS011;13066;52.042;5.648;2022-11-20T00:18:11;20.77;;;11.20;;
25073;SDS011;13066;52.042;5.648;2022-11-20T00:20:39;22.10;;;9.88;;
25073;SDS011;13066;52.042;5.648;2022-11-20T00:23:07;22.42;;;10.13;;
25073;SDS011;13066;52.042;5.648;2022-11-20T00:25:37;23.27;;;11.43;;
25073;SDS011;13066;52.042;5.648;2022-11-20T00:28:04;20.23;;;10.30;;
25073;SDS011;13066;52.042;5.648;2022-11-20T00:30:32;17.88;;;10.32;;
25073;SDS011;13066;52.042;5.648;2022-11-20T00:33:00;17.77;;;9.73;;
25073;SDS011;13066;52.042;5.648;2022-11-20T00:35:28;18.80;;;9.77;;
25073;SDS011;13066;52.042;5.648;2022-11-20T00:37:57;25.73;;;11.00;;
25073;SDS011;13066;52.042;5.648;2022-11-20T00:40:25;28.30;;;10.82;;
25073;SDS011;13066;52.042;5.648;2022-11-20T00:42:54;29.52;;;13.35;;
25073;SDS011;13066;52.042;5.648;2022-11-20T00:45:22;27.00;;;12.32;;
25073;SDS011;13066;52.042;5.648;2022-11-20T00:47:50;32.00;;;13.70;;
25073;SDS011;13066;52.042;5.648;2022-11-20T00:50:18;19.98;;;9.98;;
25073;SDS011;13066;52.042;5.648;2022-11-20T00:52:46;30.23;;;13.65;;
25073;SDS011;13066;52.042;5.648;2022-11-20T00:55:14;33.03;;;13.77;;
25073;SDS011;13066;52.042;5.648;2022-11-20T00:57:42;22.60;;;10.82;;
25073;SDS011;13066;52.042;5.648;2022-11-20T01:00:11;21.92;;;9.48;;
25073;SDS011;13066;52.042;5.648;2022-11-20T01:02:39;23.48;;;10.05;;
25073;SDS011;13066;52.042;5.648;2022-11-20T01:05:07;16.05;;;8.40;;
25073;SDS011;13066;52.042;5.648;2022-11-20T01:07:35;18.80;;;8.95;;
25073;SDS011;13066;52.042;5.648;2022-11-20T01:10:03;16.05;;;8.48;;
25073;SDS011;13066;52.042;5.648;2022-11-20T01:12:32;19.30;;;9.13;;
25073;SDS011;13066;52.042;5.648;2022-11-20T01:15:00;16.98;;;8.43;;
25073;SDS011;13066;52.042;5.648;2022-11-20T01:17:29;18.60;;;9.40;;
25073;SDS011;13066;52.042;5.648;2022-11-20T01:19:58;22.52;;;8.98;;
25073;SDS011;13066;52.042;5.648;2022-11-20T01:22:26;19.00;;;8.30;;
25073;SDS011;13066;52.042;5.648;2022-11-20T01:24:54;16.27;;;7.78;;
25073;SDS011;13066;52.042;5.648;2022-11-20T01:27:22;22.88;;;8.55;;
25073;SDS011;13066;52.042;5.648;2022-11-20T01:29:50;17.73;;;8.15;;
25073;SDS011;13066;52.042;5.648;2022-11-20T01:32:26;16.42;;;8.30;;
25073;SDS011;13066;52.042;5.648;2022-11-20T01:34:55;16.10;;;8.68;;
25073;SDS011;13066;52.042;5.648;2022-11-20T01:37:23;18.17;;;8.27;;
25073;SDS011;13066;52.042;5.648;2022-11-20T01:39:51;17.27;;;9.25;;
25073;SDS011;13066;52.042;5.648;2022-11-20T01:42:19;16.90;;;8.65;;
25073;SDS011;13066;52.042;5.648;2022-11-20T01:48:05;19.25;;;8.73;;
25073;SDS011;13066;52.042;5.648;2022-11-20T01:50:35;15.75;;;7.93;;
25073;SDS011;13066;52.042;5.648;2022-11-20T01:53:03;20.30;;;9.40;;
25073;SDS011;13066;52.042;5.648;2022-11-20T01:55:35;18.95;;;9.05;;
25073;SDS011;13066;52.042;5.648;2022-11-20T01:58:06;17.20;;;8.75;;
25073;SDS011;13066;52.042;5.648;2022-11-20T02:00:35;21.08;;;9.48;;
25073;SDS011;13066;52.042;5.648;2022-11-20T02:03:04;20.50;;;8.88;;
25073;SDS011;13066;52.042;5.648;2022-11-20T02:05:37;17.23;;;8.65;;
25073;SDS011;13066;52.042;5.648;2022-11-20T02:08:09;16.25;;;8.35;;
25073;SDS011;13066;52.042;5.648;2022-11-20T02:10:38;15.02;;;7.97;;
25073;SDS011;13066;52.042;5.648;2022-11-20T02:13:06;20.15;;;8.65;;
25073;SDS011;13066;52.042;5.648;2022-11-20T02:15:52;16.92;;;9.27;;
25073;SDS011;13066;52.042;5.648;2022-11-20T02:18:21;19.48;;;8.75;;
25073;SDS011;13066;52.042;5.648;2022-11-20T02:20:52;19.73;;;9.07;;
25073;SDS011;13066;52.042;5.648;2022-11-20T02:23:25;22.10;;;9.85;;
25073;SDS011;13066;52.042;5.648;2022-11-20T02:26:00;18.38;;;8.63;;
25073;SDS011;13066;52.042;5.648;2022-11-20T02:28:30;18.77;;;9.32;;
25073;SDS011;13066;52.042;5.648;2022-11-20T02:30:58;16.08;;;8.20;;
25073;SDS011;13066;52.042;5.648;2022-11-20T02:33:26;16.52;;;9.25;;
25073;SDS011;13066;52.042;5.648;2022-11-20T02:35:54;17.63;;;7.80;;
25073;SDS011;13066;52.042;5.648;2022-11-20T02:38:22;20.00;;;8.77;;
25073;SDS011;13066;52.042;5.648;2022-11-20T02:40:50;16.60;;;7.93;;
25073;SDS011;13066;52.042;5.648;2022-11-20T02:43:22;17.13;;;8.70;;
25073;SDS011;13066;52.042;5.648;2022-11-20T02:45:50;19.55;;;9.07;;
25073;SDS011;13066;52.042;5.648;2022-11-20T02:48:18;20.05;;;8.52;;
25073;SDS011;13066;52.042;5.648;2022-11-20T02:50:49;17.90;;;9.00;;
25073;SDS011;13066;52.042;5.648;2022-11-20T02:53:17;18.20;;;8.68;;
25073;SDS011;13066;52.042;5.648;2022-11-20T02:55:45;18.42;;;9.13;;
25073;SDS011;13066;52.042;5.648;2022-11-20T02:58:13;17.80;;;8.25;;
25073;SDS011;13066;52.042;5.648;2022-11-20T03:00:43;18.95;;;8.32;;
25073;SDS011;13066;52.042;5.648;2022-11-20T03:03:11;20.90;;;8.95;;
25073;SDS011;13066;52.042;5.648;2022-11-20T03:05:39;13.75;;;7.45;;
25073;SDS011;13066;52.042;5.648;2022-11-20T03:08:07;18.42;;;9.13;;
25073;SDS011;13066;52.042;5.648;2022-11-20T03:10:35;16.75;;;8.75;;
25073;SDS011;13066;52.042;5.648;2022-11-20T03:13:03;16.85;;;8.57;;
25073;SDS011;13066;52.042;5.648;2022-11-20T03:15:31;17.42;;;8.57;;
25073;SDS011;13066;52.042;5.648;2022-11-20T03:18:00;16.45;;;8.27;;
25073;SDS011;13066;52.042;5.648;2022-11-20T03:20:28;15.65;;;9.00;;
25073;SDS011;13066;52.042;5.648;2022-11-20T03:22:56;15.75;;;7.68;;
25073;SDS011;13066;52.042;5.648;2022-11-20T03:25:24;17.42;;;8.40;;
25073;SDS011;13066;52.042;5.648;2022-11-20T03:27:53;12.38;;;7.82;;
25073;SDS011;13066;52.042;5.648;2022-11-20T03:30:21;17.42;;;8.05;;
25073;SDS011;13066;52.042;5.648;2022-11-20T03:32:55;17.05;;;8.55;;
25073;SDS011;13066;52.042;5.648;2022-11-20T03:35:25;18.73;;;8.95;;
25073;SDS011;13066;52.042;5.648;2022-11-20T03:37:53;16.75;;;8.32;;
25073;SDS011;13066;52.042;5.648;2022-11-20T03:40:21;16.70;;;8.63;;
25073;SDS011;13066;52.042;5.648;2022-11-20T03:42:48;19.83;;;8.50;;
25073;SDS011;13066;52.042;5.648;2022-11-20T03:45:17;16.40;;;8.45;;
25073;SDS011;13066;52.042;5.648;2022-11-20T03:47:45;21.17;;;8.85;;
25073;SDS011;13066;52.042;5.648;2022-11-20T03:50:13;14.63;;;8.00;;
25073;SDS011;13066;52.042;5.648;2022-11-20T03:52:43;20.17;;;9.23;;
25073;SDS011;13066;52.042;5.648;2022-11-20T03:55:11;22.42;;;8.85;;
25073;SDS011;13066;52.042;5.648;2022-11-20T03:57:39;17.58;;;8.18;;
25073;SDS011;13066;52.042;5.648;2022-11-20T04:00:07;18.05;;;8.80;;
25073;SDS011;13066;52.042;5.648;2022-11-20T04:02:36;17.13;;;9.25;;
25073;SDS011;13066;52.042;5.648;2022-11-20T04:05:04;21.27;;;9.02;;
25073;SDS011;13066;52.042;5.648;2022-11-20T04:07:33;20.52;;;9.25;;
25073;SDS011;13066;52.042;5.648;2022-11-20T04:10:03;18.70;;;9.10;;
25073;SDS011;13066;52.042;5.648;2022-11-20T04:12:32;19.33;;;8.27;;
25073;SDS011;13066;52.042;5.648;2022-11-20T04:15:00;24.00;;;8.85;;
25073;SDS011;13066;52.042;5.648;2022-11-20T04:17:28;20.75;;;9.52;;
25073;SDS011;13066;52.042;5.648;2022-11-20T04:19:56;16.92;;;9.30;;
25073;SDS011;13066;52.042;5.648;2022-11-20T04:22:24;18.77;;;9.75;;
25073;SDS011;13066;52.042;5.648;2022-11-20T04:24:52;19.98;;;8.45;;
25073;SDS011;13066;52.042;5.648;2022-11-20T04:27:21;17.20;;;9.23;;
25073;SDS011;13066;52.042;5.648;2022-11-20T04:29:49;18.45;;;8.82;;
25073;SDS011;13066;52.042;5.648;2022-11-20T04:32:17;20.67;;;9.43;;
25073;SDS011;13066;52.042;5.648;2022-11-20T04:34:45;21.15;;;9.80;;
25073;SDS011;13066;52.042;5.648;2022-11-20T04:37:13;23.88;;;9.82;;
25073;SDS011;13066;52.042;5.648;2022-11-20T04:39:41;21.42;;;9.38;;
25073;SDS011;13066;52.042;5.648;2022-11-20T04:42:09;16.45;;;8.57;;
25073;SDS011;13066;52.042;5.648;2022-11-20T04:44:56;18.30;;;8.65;;
25073;SDS011;13066;52.042;5.648;2022-11-20T04:47:25;27.17;;;9.70;;
25073;SDS011;13066;52.042;5.648;2022-11-20T04:49:53;20.48;;;9.13;;
25073;SDS011;13066;52.042;5.648;2022-11-20T04:52:21;17.98;;;8.32;;
25073;SDS011;13066;52.042;5.648;2022-11-20T04:54:49;18.63;;;8.88;;
25073;SDS011;13066;52.042;5.648;2022-11-20T04:57:19;18.23;;;8.43;;
25073;SDS011;13066;52.042;5.648;2022-11-20T04:59:47;16.33;;;7.82;;
25073;SDS011;13066;52.042;5.648;2022-11-20T05:02:16;16.08;;;8.30;;
25073;SDS011;13066;52.042;5.648;2022-11-20T05:04:44;13.48;;;7.53;;
25073;SDS011;13066;52.042;5.648;2022-11-20T05:07:12;17.63;;;8.82;;
25073;SDS011;13066;52.042;5.648;2022-11-20T05:09:40;17.63;;;8.13;;
25073;SDS011;13066;52.042;5.648;2022-11-20T05:12:09;18.10;;;9.20;;
25073;SDS011;13066;52.042;5.648;2022-11-20T05:14:37;17.38;;;8.13;;
25073;SDS011;13066;52.042;5.648;2022-11-20T05:17:04;15.57;;;8.40;;
25073;SDS011;13066;52.042;5.648;2022-11-20T05:19:34;16.73;;;7.65;;
25073;SDS011;13066;52.042;5.648;2022-11-20T05:22:02;13.60;;;7.32;;
25073;SDS011;13066;52.042;5.648;2022-11-20T05:24:31;17.50;;;8.93;;
25073;SDS011;13066;52.042;5.648;2022-11-20T05:26:59;21.30;;;9.18;;
25073;SDS011;13066;52.042;5.648;2022-11-20T05:29:27;17.38;;;8.30;;
25073;SDS011;13066;52.042;5.648;2022-11-20T05:31:55;15.85;;;8.60;;
25073;SDS011;13066;52.042;5.648;2022-11-20T05:34:22;17.17;;;8.60;;
25073;SDS011;13066;52.042;5.648;2022-11-20T05:36:52;18.02;;;8.77;;
25073;SDS011;13066;52.042;5.648;2022-11-20T05:39:20;18.17;;;9.30;;
25073;SDS011;13066;52.042;5.648;2022-11-20T05:41:48;16.50;;;8.50;;
25073;SDS011;13066;52.042;5.648;2022-11-20T05:44:36;19.83;;;9.68;;
25073;SDS011;13066;52.042;5.648;2022-11-20T05:47:04;15.55;;;8.77;;
25073;SDS011;13066;52.042;5.648;2022-11-20T05:49:32;17.42;;;9.32;;
25073;SDS011;13066;52.042;5.648;2022-11-20T05:52:02;19.20;;;9.75;;
25073;SDS011;13066;52.042;5.648;2022-11-20T05:54:30;16.15;;;8.32;;
25073;SDS011;13066;52.042;5.648;2022-11-20T05:56:58;17.00;;;8.95;;
25073;SDS011;13066;52.042;5.648;2022-11-20T05:59:26;18.25;;;8.85;;
25073;SDS011;13066;52.042;5.648;2022-11-20T06:01:54;22.00;;;9.65;;
25073;SDS011;13066;52.042;5.648;2022-11-20T06:04:22;16.02;;;8.63;;
25073;SDS011;13066;52.042;5.648;2022-11-20T06:06:49;18.17;;;9.15;;
25073;SDS011;13066;52.042;5.648;2022-11-20T06:09:19;17.77;;;9.18;;
25073;SDS011;13066;52.042;5.648;2022-11-20T06:11:47;20.00;;;9.15;;
25073;SDS011;13066;52.042;5.648;2022-11-20T06:14:15;17.30;;;8.40;;
25073;SDS011;13066;52.042;5.648;2022-11-20T06:16:43;17.08;;;8.95;;
25073;SDS011;13066;52.042;5.648;2022-11-20T06:19:11;17.08;;;8.38;;
25073;SDS011;13066;52.042;5.648;2022-11-20T06:21:39;21.10;;;10.48;;
25073;SDS011;13066;52.042;5.648;2022-11-20T06:24:08;20.67;;;10.65;;
25073;SDS011;13066;52.042;5.648;2022-11-20T06:26:37;24.73;;;9.32;;
25073;SDS011;13066;52.042;5.648;2022-11-20T06:29:05;17.48;;;8.93;;
25073;SDS011;13066;52.042;5.648;2022-11-20T06:31:33;19.33;;;10.15;;
25073;SDS011;13066;52.042;5.648;2022-11-20T06:34:04;20.10;;;10.48;;
25073;SDS011;13066;52.042;5.648;2022-11-20T06:36:32;20.90;;;9.45;;
25073;SDS011;13066;52.042;5.648;2022-11-20T06:39:00;22.02;;;11.13;;
25073;SDS011;13066;52.042;5.648;2022-11-20T06:41:28;24.08;;;10.05;;
25073;SDS011;13066;52.042;5.648;2022-11-20T06:43:57;26.80;;;9.90;;
25073;SDS011;13066;52.042;5.648;2022-11-20T06:46:25;17.88;;;8.90;;
25073;SDS011;13066;52.042;5.648;2022-11-20T06:48:53;20.98;;;9.77;;
25073;SDS011;13066;52.042;5.648;2022-11-20T06:51:21;18.10;;;9.73;;
25073;SDS011;13066;52.042;5.648;2022-11-20T06:53:49;17.10;;;9.02;;
25073;SDS011;13066;52.042;5.648;2022-11-20T06:56:17;19.55;;;9.05;;
25073;SDS011;13066;52.042;5.648;2022-11-20T06:58:45;18.50;;;8.68;;
25073;SDS011;13066;52.042;5.648;2022-11-20T07:01:15;20.50;;;9.30;;
25073;SDS011;13066;52.042;5.648;2022-11-20T07:03:43;21.80;;;10.13;;
25073;SDS011;13066;52.042;5.648;2022-11-20T07:06:19;24.35;;;10.15;;
25073;SDS011;13066;52.042;5.648;2022-11-20T07:08:47;22.35;;;10.13;;
25073;SDS011;13066;52.042;5.648;2022-11-20T07:11:17;22.75;;;10.93;;
25073;SDS011;13066;52.042;5.648;2022-11-20T07:13:45;22.15;;;10.02;;
25073;SDS011;13066;52.042;5.648;2022-11-20T07:16:14;18.67;;;9.60;;
25073;SDS011;13066;52.042;5.648;2022-11-20T07:18:43;24.77;;;11.77;;
25073;SDS011;13066;52.042;5.648;2022-11-20T07:21:16;27.55;;;11.60;;
25073;SDS011;13066;52.042;5.648;2022-11-20T07:23:44;23.45;;;10.82;;
25073;SDS011;13066;52.042;5.648;2022-11-20T07:26:11;26.98;;;11.82;;
25073;SDS011;13066;52.042;5.648;2022-11-20T07:28:39;30.65;;;11.65;;
25073;SDS011;13066;52.042;5.648;2022-11-20T07:31:10;26.48;;;10.95;;
25073;SDS011;13066;52.042;5.648;2022-11-20T07:33:46;21.73;;;11.13;;
25073;SDS011;13066;52.042;5.648;2022-11-20T07:36:13;25.80;;;11.32;;
25073;SDS011;13066;52.042;5.648;2022-11-20T07:38:41;20.95;;;10.40;;
25073;SDS011;13066;52.042;5.648;2022-11-20T07:41:09;28.60;;;12.30;;
25073;SDS011;13066;52.042;5.648;2022-11-20T07:43:37;21.90;;;11.60;;
25073;SDS011;13066;52.042;5.648;2022-11-20T07:46:07;25.88;;;11.98;;
25073;SDS011;13066;52.042;5.648;2022-11-20T07:48:34;31.40;;;11.32;;
25073;SDS011;13066;52.042;5.648;2022-11-20T07:51:04;31.00;;;12.73;;
25073;SDS011;13066;52.042;5.648;2022-11-20T07:53:32;23.83;;;11.68;;
25073;SDS011;13066;52.042;5.648;2022-11-20T07:56:00;22.63;;;12.75;;
25073;SDS011;13066;52.042;5.648;2022-11-20T07:58:28;24.13;;;12.23;;
25073;SDS011;13066;52.042;5.648;2022-11-20T08:01:02;24.10;;;11.98;;
25073;SDS011;13066;52.042;5.648;2022-11-20T08:03:30;22.20;;;11.95;;
25073;SDS011;13066;52.042;5.648;2022-11-20T08:05:58;22.45;;;11.93;;
25073;SDS011;13066;52.042;5.648;2022-11-20T08:08:28;28.70;;;13.00;;
25073;SDS011;13066;52.042;5.648;2022-11-20T08:10:59;28.63;;;13.25;;
25073;SDS011;13066;52.042;5.648;2022-11-20T08:13:41;27.52;;;12.90;;
25073;SDS011;13066;52.042;5.648;2022-11-20T08:16:26;30.02;;;14.27;;
25073;SDS011;13066;52.042;5.648;2022-11-20T08:18:54;28.30;;;14.35;;
25073;SDS011;13066;52.042;5.648;2022-11-20T08:21:23;26.10;;;13.73;;
25073;SDS011;13066;52.042;5.648;2022-11-20T08:23:52;33.47;;;14.40;;
25073;SDS011;13066;52.042;5.648;2022-11-20T08:26:22;28.42;;;14.85;;
25073;SDS011;13066;52.042;5.648;2022-11-20T08:28:52;29.42;;;13.95;;
25073;SDS011;13066;52.042;5.648;2022-11-20T08:31:21;33.63;;;15.50;;
25073;SDS011;13066;52.042;5.648;2022-11-20T08:33:50;34.30;;;15.55;;
25073;SDS011;13066;52.042;5.648;2022-11-20T08:36:18;33.97;;;15.07;;
25073;SDS011;13066;52.042;5.648;2022-11-20T08:38:47;30.88;;;15.50;;
25073;SDS011;13066;52.042;5.648;2022-11-20T08:41:16;37.03;;;15.35;;
25073;SDS011;13066;52.042;5.648;2022-11-20T08:43:52;31.83;;;14.80;;
25073;SDS011;13066;52.042;5.648;2022-11-20T08:46:22;31.98;;;15.23;;
25073;SDS011;13066;52.042;5.648;2022-11-20T08:48:51;37.15;;;17.02;;
25073;SDS011;13066;52.042;5.648;2022-11-20T08:51:19;29.50;;;14.68;;
25073;SDS011;13066;52.042;5.648;2022-11-20T08:53:47;31.05;;;15.32;;
25073;SDS011;13066;52.042;5.648;2022-11-20T08:56:17;33.63;;;17.17;;
25073;SDS011;13066;52.042;5.648;2022-11-20T08:58:45;38.22;;;17.23;;
25073;SDS011;13066;52.042;5.648;2022-11-20T09:01:33;26.55;;;15.25;;
25073;SDS011;13066;52.042;5.648;2022-11-20T09:04:01;30.83;;;15.80;;
25073;SDS011;13066;52.042;5.648;2022-11-20T09:06:30;29.00;;;15.38;;
25073;SDS011;13066;52.042;5.648;2022-11-20T09:08:58;33.60;;;16.02;;
25073;SDS011;13066;52.042;5.648;2022-11-20T09:11:33;33.53;;;15.38;;
25073;SDS011;13066;52.042;5.648;2022-11-20T09:14:02;37.53;;;16.10;;
25073;SDS011;13066;52.042;5.648;2022-11-20T09:16:30;35.13;;;15.88;;
25073;SDS011;13066;52.042;5.648;2022-11-20T09:18:58;32.60;;;16.10;;
25073;SDS011;13066;52.042;5.648;2022-11-20T09:21:46;32.10;;;15.70;;
25073;SDS011;13066;52.042;5.648;2022-11-20T09:24:14;27.00;;;13.27;;
25073;SDS011;13066;52.042;5.648;2022-11-20T09:26:44;31.40;;;14.98;;
25073;SDS011;13066;52.042;5.648;2022-11-20T09:29:12;28.95;;;14.50;;
25073;SDS011;13066;52.042;5.648;2022-11-20T09:31:40;28.63;;;14.15;;
25073;SDS011;13066;52.042;5.648;2022-11-20T09:34:08;29.40;;;15.15;;
25073;SDS011;13066;52.042;5.648;2022-11-20T09:36:36;30.33;;;14.88;;
25073;SDS011;13066;52.042;5.648;2022-11-20T09:39:04;27.77;;;14.00;;
25073;SDS011;13066;52.042;5.648;2022-11-20T09:41:39;29.17;;;15.23;;
25073;SDS011;13066;52.042;5.648;2022-11-20T09:44:32;29.42;;;13.68;;
25073;SDS011;13066;52.042;5.648;2022-11-20T09:47:11;30.05;;;14.73;;
25073;SDS011;13066;52.042;5.648;2022-11-20T09:49:51;32.78;;;16.58;;
25073;SDS011;13066;52.042;5.648;2022-11-20T09:52:37;29.45;;;14.98;;
25073;SDS011;13066;52.042;5.648;2022-11-20T09:55:12;28.88;;;14.80;;
25073;SDS011;13066;52.042;5.648;2022-11-20T09:57:45;38.13;;;16.10;;
25073;SDS011;13066;52.042;5.648;2022-11-20T10:00:15;32.00;;;15.73;;
25073;SDS011;13066;52.042;5.648;2022-11-20T10:02:47;35.70;;;16.55;;
25073;SDS011;13066;52.042;5.648;2022-11-20T10:05:21;30.77;;;15.88;;
25073;SDS011;13066;52.042;5.648;2022-11-20T10:07:53;35.10;;;17.00;;
25073;SDS011;13066;52.042;5.648;2022-11-20T10:10:35;27.75;;;15.65;;
25073;SDS011;13066;52.042;5.648;2022-11-20T10:13:15;36.30;;;16.58;;
25073;SDS011;13066;52.042;5.648;2022-11-20T10:15:54;35.60;;;15.65;;
25073;SDS011;13066;52.042;5.648;2022-11-20T10:18:34;32.40;;;16.10;;
25073;SDS011;13066;52.042;5.648;2022-11-20T10:21:12;39.78;;;17.48;;
25073;SDS011;13066;52.042;5.648;2022-11-20T10:23:57;29.92;;;16.63;;
25073;SDS011;13066;52.042;5.648;2022-11-20T10:26:43;30.35;;;15.77;;
25073;SDS011;13066;52.042;5.648;2022-11-20T10:29:21;32.47;;;16.88;;
25073;SDS011;13066;52.042;5.648;2022-11-20T10:31:57;31.90;;;16.08;;
25073;SDS011;13066;52.042;5.648;2022-11-20T10:34:30;29.73;;;15.48;;
25073;SDS011;13066;52.042;5.648;2022-11-20T10:37:04;37.13;;;16.48;;
25073;SDS011;13066;52.042;5.648;2022-11-20T10:42:08;30.45;;;15.80;;
25073;SDS011;13066;52.042;5.648;2022-11-20T10:44:42;36.50;;;16.45;;
25073;SDS011;13066;52.042;5.648;2022-11-20T10:47:32;32.67;;;16.75;;
25073;SDS011;13066;52.042;5.648;2022-11-20T10:50:01;45.47;;;18.88;;
25073;SDS011;13066;52.042;5.648;2022-11-20T10:52:32;39.97;;;18.95;;
25073;SDS011;13066;52.042;5.648;2022-11-20T10:55:12;47.50;;;24.98;;
25073;SDS011;13066;52.042;5.648;2022-11-20T10:57:53;43.10;;;21.65;;
25073;SDS011;13066;52.042;5.648;2022-11-20T11:00:31;45.95;;;22.17;;
25073;SDS011;13066;52.042;5.648;2022-11-20T11:02:59;43.60;;;21.90;;
25073;SDS011;13066;52.042;5.648;2022-11-20T11:05:33;39.10;;;20.23;;
25073;SDS011;13066;52.042;5.648;2022-11-20T11:08:08;39.47;;;20.25;;
25073;SDS011;13066;52.042;5.648;2022-11-20T11:10:41;46.13;;;21.42;;
25073;SDS011;13066;52.042;5.648;2022-11-20T11:13:20;48.85;;;20.58;;
25073;SDS011;13066;52.042;5.648;2022-11-20T11:15:50;41.00;;;19.88;;
25073;SDS011;13066;52.042;5.648;2022-11-20T11:18:25;41.58;;;19.05;;
25073;SDS011;13066;52.042;5.648;2022-11-20T11:20:56;46.13;;;20.30;;
25073;SDS011;13066;52.042;5.648;2022-11-20T11:23:28;41.25;;;20.25;;
25073;SDS011;13066;52.042;5.648;2022-11-20T11:26:00;35.65;;;19.67;;
25073;SDS011;13066;52.042;5.648;2022-11-20T11:28:30;40.35;;;18.55;;
25073;SDS011;13066;52.042;5.648;2022-11-20T11:30:59;37.70;;;17.85;;
25073;SDS011;13066;52.042;5.648;2022-11-20T11:33:28;44.70;;;21.08;;
25073;SDS011;13066;52.042;5.648;2022-11-20T11:35:58;53.60;;;23.23;;
25073;SDS011;13066;52.042;5.648;2022-11-20T11:38:29;46.58;;;22.35;;
25073;SDS011;13066;52.042;5.648;2022-11-20T11:41:00;43.25;;;20.75;;
25073;SDS011;13066;52.042;5.648;2022-11-20T11:43:30;50.72;;;21.42;;
25073;SDS011;13066;52.042;5.648;2022-11-20T11:46:31;51.25;;;21.45;;
25073;SDS011;13066;52.042;5.648;2022-11-20T11:49:08;39.83;;;20.30;;
25073;SDS011;13066;52.042;5.648;2022-11-20T11:51:56;36.90;;;20.20;;
25073;SDS011;13066;52.042;5.648;2022-11-20T11:54:32;36.53;;;18.13;;
25073;SDS011;13066;52.042;5.648;2022-11-20T11:57:05;37.88;;;18.35;;
25073;SDS011;13066;52.042;5.648;2022-11-20T11:59:43;32.88;;;18.05;;
25073;SDS011;13066;52.042;5.648;2022-11-20T12:02:24;37.10;;;18.35;;
25073;SDS011;13066;52.042;5.648;2022-11-20T12:04:59;34.90;;;17.45;;
25073;SDS011;13066;52.042;5.648;2022-11-20T12:07:36;34.20;;;17.65;;
25073;SDS011;13066;52.042;5.648;2022-11-20T12:10:15;36.50;;;17.60;;
25073;SDS011;13066;52.042;5.648;2022-11-20T12:12:48;34.83;;;16.23;;
25073;SDS011;13066;52.042;5.648;2022-11-20T12:15:24;33.72;;;17.23;;
25073;SDS011;13066;52.042;5.648;2022-11-20T12:17:57;32.08;;;17.45;;
25073;SDS011;13066;52.042;5.648;2022-11-20T12:20:27;36.95;;;19.25;;
25073;SDS011;13066;52.042;5.648;2022-11-20T12:23:00;36.42;;;18.10;;
25073;SDS011;13066;52.042;5.648;2022-11-20T12:25:34;38.55;;;18.17;;
25073;SDS011;13066;52.042;5.648;2022-11-20T12:28:07;37.95;;;17.58;;
25073;SDS011;13066;52.042;5.648;2022-11-20T12:30:50;39.22;;;17.63;;
25073;SDS011;13066;52.042;5.648;2022-11-20T12:33:47;35.10;;;17.63;;
25073;SDS011;13066;52.042;5.648;2022-11-20T12:36:27;40.17;;;18.02;;
25073;SDS011;13066;52.042;5.648;2022-11-20T12:39:18;37.28;;;18.63;;
25073;SDS011;13066;52.042;5.648;2022-11-20T12:45:46;37.35;;;18.10;;
25073;SDS011;13066;52.042;5.648;2022-11-20T12:48:38;37.53;;;18.73;;
25073;SDS011;13066;52.042;5.648;2022-11-20T12:51:21;38.08;;;18.15;;
25073;SDS011;13066;52.042;5.648;2022-11-20T12:54:06;37.53;;;18.70;;
25073;SDS011;13066;52.042;5.648;2022-11-20T12:56:54;34.22;;;16.55;;
25073;SDS011;13066;52.042;5.648;2022-11-20T12:59:33;35.65;;;17.40;;
25073;SDS011;13066;52.042;5.648;2022-11-20T13:02:25;35.20;;;16.70;;
25073;SDS011;13066;52.042;5.648;2022-11-20T13:05:04;33.00;;;16.83;;
25073;SDS011;13066;52.042;5.648;2022-11-20T13:07:42;34.58;;;16.15;;
25073;SDS011;13066;52.042;5.648;2022-11-20T13:10:13;33.33;;;16.50;;
25073;SDS011;13066;52.042;5.648;2022-11-20T13:12:45;30.40;;;16.60;;
25073;SDS011;13066;52.042;5.648;2022-11-20T13:15:17;39.72;;;18.83;;
25073;SDS011;13066;52.042;5.648;2022-11-20T13:17:59;32.15;;;17.83;;
25073;SDS011;13066;52.042;5.648;2022-11-20T13:20:28;35.97;;;18.00;;
25073;SDS011;13066;52.042;5.648;2022-11-20T13:22:59;37.30;;;18.45;;
25073;SDS011;13066;52.042;5.648;2022-11-20T13:25:28;36.95;;;17.90;;
25073;SDS011;13066;52.042;5.648;2022-11-20T13:27:57;39.83;;;19.25;;
25073;SDS011;13066;52.042;5.648;2022-11-20T13:30:27;34.95;;;18.25;;
25073;SDS011;13066;52.042;5.648;2022-11-20T13:32:57;39.60;;;19.77;;
25073;SDS011;13066;52.042;5.648;2022-11-20T13:35:30;38.35;;;18.90;;
25073;SDS011;13066;52.042;5.648;2022-11-20T13:38:04;41.35;;;19.10;;
25073;SDS011;13066;52.042;5.648;2022-11-20T13:40:35;38.30;;;17.38;;
25073;SDS011;13066;52.042;5.648;2022-11-20T13:43:07;39.95;;;20.15;;
25073;SDS011;13066;52.042;5.648;2022-11-20T13:45:53;39.28;;;19.23;;
25073;SDS011;13066;52.042;5.648;2022-11-20T13:48:24;39.90;;;20.30;;
25073;SDS011;13066;52.042;5.648;2022-11-20T13:50:56;35.25;;;18.52;;
25073;SDS011;13066;52.042;5.648;2022-11-20T13:53:36;41.53;;;18.95;;
25073;SDS011;13066;52.042;5.648;2022-11-20T13:56:22;37.65;;;18.58;;
25073;SDS011;13066;52.042;5.648;2022-11-20T13:58:56;44.10;;;20.27;;
25073;SDS011;13066;52.042;5.648;2022-11-20T14:01:37;43.47;;;20.58;;
25073;SDS011;13066;52.042;5.648;2022-11-20T14:04:06;43.45;;;20.60;;
25073;SDS011;13066;52.042;5.648;2022-11-20T14:06:39;43.22;;;21.15;;
25073;SDS011;13066;52.042;5.648;2022-11-20T14:09:12;41.58;;;21.40;;
25073;SDS011;13066;52.042;5.648;2022-11-20T14:11:52;40.40;;;20.00;;
25073;SDS011;13066;52.042;5.648;2022-11-20T14:14:20;46.67;;;22.30;;
25073;SDS011;13066;52.042;5.648;2022-11-20T14:16:50;45.53;;;19.55;;
25073;SDS011;13066;52.042;5.648;2022-11-20T14:19:26;39.47;;;20.38;;
25073;SDS011;13066;52.042;5.648;2022-11-20T14:22:07;45.55;;;19.63;;
25073;SDS011;13066;52.042;5.648;2022-11-20T14:24:38;40.38;;;19.75;;
25073;SDS011;13066;52.042;5.648;2022-11-20T14:27:10;46.83;;;21.73;;
25073;SDS011;13066;52.042;5.648;2022-11-20T14:29:40;41.97;;;20.10;;
25073;SDS011;13066;52.042;5.648;2022-11-20T14:32:09;41.53;;;20.92;;
25073;SDS011;13066;52.042;5.648;2022-11-20T14:34:38;42.17;;;21.38;;
25073;SDS011;13066;52.042;5.648;2022-11-20T14:37:10;49.53;;;20.83;;
25073;SDS011;13066;52.042;5.648;2022-11-20T14:39:47;45.25;;;21.45;;
25073;SDS011;13066;52.042;5.648;2022-11-20T14:42:18;57.50;;;25.75;;
25073;SDS011;13066;52.042;5.648;2022-11-20T14:44:48;57.40;;;24.98;;
25073;SDS011;13066;52.042;5.648;2022-11-20T14:47:18;42.40;;;20.95;;
25073;SDS011;13066;52.042;5.648;2022-11-20T14:49:48;54.22;;;23.58;;
25073;SDS011;13066;52.042;5.648;2022-11-20T14:52:18;49.47;;;21.45;;
25073;SDS011;13066;52.042;5.648;2022-11-20T14:54:49;51.80;;;23.08;;
25073;SDS011;13066;52.042;5.648;2022-11-20T14:57:22;51.35;;;22.42;;
25073;SDS011;13066;52.042;5.648;2022-11-20T15:02:31;49.35;;;21.52;;